Time;durP1;ratioP1;P1;durP2;ratioP2;P2;SDS_P1;SDS_P2;PMS_P1;PMS_P2;Temp;Humidity;BMP_temperature;BMP_pressure;BME280_temperature;BME280_humidity;BME280_pressure;Samples;Min_cycle;Max_cycle;Signal;HPM_P1;HPM_P2
2021/10/03 00:00:58;;;;;;;3.85;2.92;;;;;;;17.37;100.00;99404.97;4968723;28;20316;-76
2021/10/03 00:03:26;;;;;;;3.65;2.90;;;;;;;17.26;100.00;99399.53;4960143;28;20252;-77
2021/10/03 00:05:55;;;;;;;5.45;3.15;;;;;;;17.35;100.00;99401.00;4969367;28;20236;-75
2021/10/03 00:08:24;;;;;;;3.35;2.92;;;;;;;17.47;100.00;99399.03;4979005;28;20181;-73
2021/10/03 00:10:49;;;;;;;4.43;2.67;;;;;;;17.43;100.00;99400.84;4954068;28;20828;-75
2021/10/03 00:13:17;;;;;;;3.25;2.75;;;;;;;17.41;100.00;99394.91;4993119;28;20166;-75
2021/10/03 00:15:43;;;;;;;3.42;2.80;;;;;;;17.53;100.00;99392.13;4966096;28;20224;-77
2021/10/03 00:18:11;;;;;;;3.50;3.15;;;;;;;17.63;100.00;99399.09;4962802;28;20719;-74
2021/10/03 00:20:39;;;;;;;3.63;3.28;;;;;;;17.64;100.00;99393.25;4988384;28;20312;-74
2021/10/03 00:23:05;;;;;;;3.70;2.83;;;;;;;17.70;100.00;99396.53;4960145;28;20206;-76
2021/10/03 00:25:31;;;;;;;3.15;2.80;;;;;;;17.68;100.00;99396.09;4963179;28;20231;-76
2021/10/03 00:27:57;;;;;;;4.53;3.00;;;;;;;17.72;100.00;99388.75;4994652;28;20182;-75
2021/10/03 00:30:22;;;;;;;5.25;3.03;;;;;;;17.87;100.00;99391.53;4991267;28;20201;-74
2021/10/03 00:32:50;;;;;;;3.67;3.17;;;;;;;17.95;100.00;99382.38;4974992;28;20198;-75
2021/10/03 00:35:16;;;;;;;5.20;3.35;;;;;;;18.03;100.00;99384.94;4928427;28;20193;-75
2021/10/03 00:37:46;;;;;;;6.78;3.05;;;;;;;17.97;100.00;99389.09;4977980;28;20181;-75
2021/10/03 00:40:14;;;;;;;5.25;2.95;;;;;;;18.07;100.00;99379.53;4993784;28;20241;-74
2021/10/03 00:42:40;;;;;;;3.97;3.20;;;;;;;18.11;100.00;99369.47;4974618;28;20805;-74
2021/10/03 00:45:06;;;;;;;3.72;2.97;;;;;;;18.17;100.00;99374.38;4958275;28;20276;-75
2021/10/03 00:47:32;;;;;;;3.60;3.17;;;;;;;18.08;100.00;99370.16;4992863;28;20769;-74
2021/10/03 00:49:57;;;;;;;3.55;3.25;;;;;;;18.22;100.00;99372.16;4994124;28;20208;-74
2021/10/03 00:52:23;;;;;;;3.90;3.00;;;;;;;18.22;100.00;99365.84;4945041;28;20283;-76
2021/10/03 00:54:53;;;;;;;3.55;3.03;;;;;;;18.36;100.00;99356.00;4976245;28;20261;-74
2021/10/03 00:57:21;;;;;;;3.40;3.10;;;;;;;18.50;100.00;99351.66;4972889;28;20281;-74
2021/10/03 00:59:49;;;;;;;3.38;3.05;;;;;;;18.42;100.00;99367.53;4978258;28;20212;-77
2021/10/03 01:02:17;;;;;;;3.17;2.80;;;;;;;18.46;100.00;99357.44;4963983;28;20228;-76
2021/10/03 01:04:43;;;;;;;5.03;3.05;;;;;;;18.49;100.00;99355.56;4942408;28;20217;-74
2021/10/03 01:07:08;;;;;;;3.20;2.90;;;;;;;18.61;100.00;99351.94;4937955;28;20221;-75
2021/10/03 01:09:34;;;;;;;7.07;2.97;;;;;;;18.80;100.00;99354.75;4993952;28;20694;-74
2021/10/03 01:12:01;;;;;;;3.85;2.97;;;;;;;18.83;100.00;99354.03;4967076;28;20229;-74
2021/10/03 01:14:27;;;;;;;3.42;3.00;;;;;;;18.93;100.00;99343.28;4958880;28;20169;-75
2021/10/03 01:16:53;;;;;;;3.13;2.85;;;;;;;18.84;100.00;99339.91;4950374;28;20225;-75
2021/10/03 01:19:19;;;;;;;5.18;3.00;;;;;;;18.88;100.00;99328.97;4994006;28;20187;-76
2021/10/03 01:21:45;;;;;;;5.88;3.10;;;;;;;18.93;100.00;99349.56;4970077;28;20631;-74
2021/10/03 01:24:11;;;;;;;4.32;3.70;;;;;;;19.06;100.00;99342.81;4958495;28;20229;-75
2021/10/03 01:26:37;;;;;;;4.53;2.75;;;;;;;19.15;100.00;99339.88;4962776;28;20251;-75
2021/10/03 01:29:02;;;;;;;3.78;3.25;;;;;;;19.21;100.00;99344.75;4961725;28;20597;-75
2021/10/03 01:31:29;;;;;;;3.50;2.95;;;;;;;19.08;100.00;99339.72;4989629;28;20229;-75
2021/10/03 01:33:57;;;;;;;3.30;3.00;;;;;;;19.35;100.00;99339.53;4977156;28;20181;-75
2021/10/03 01:36:23;;;;;;;4.47;2.92;;;;;;;19.24;100.00;99333.00;4975875;28;20224;-76
2021/10/03 01:38:51;;;;;;;3.63;2.88;;;;;;;19.32;100.00;99340.25;4977358;28;20188;-75
2021/10/03 01:41:17;;;;;;;4.65;2.90;;;;;;;19.39;100.00;99324.66;4992303;28;20236;-76
2021/10/03 01:43:47;;;;;;;3.33;2.70;;;;;;;19.35;100.00;99323.78;4959045;28;20209;-74
2021/10/03 01:46:13;;;;;;;3.00;2.70;;;;;;;19.40;100.00;99325.47;4957282;28;20222;-73
2021/10/03 01:48:38;;;;;;;3.10;2.70;;;;;;;19.59;100.00;99328.22;4976895;28;20242;-75
2021/10/03 01:51:09;;;;;;;3.67;2.80;;;;;;;19.45;100.00;99319.66;4993718;28;20229;-76
2021/10/03 01:53:37;;;;;;;3.67;2.88;;;;;;;19.55;100.00;99317.13;4975633;28;20210;-74
2021/10/03 01:56:06;;;;;;;2.95;2.50;;;;;;;19.58;100.00;99312.84;4941684;28;20290;-76
2021/10/03 01:58:43;;;;;;;3.97;2.95;;;;;;;19.65;100.00;99300.03;4975004;28;20181;-76
2021/10/03 02:01:17;;;;;;;3.97;3.10;;;;;;;19.62;100.00;99308.22;4994075;28;20260;-76
2021/10/03 02:03:48;;;;;;;3.40;2.55;;;;;;;19.58;100.00;99307.34;4960826;28;20205;-75
2021/10/03 02:06:17;;;;;;;3.65;2.63;;;;;;;19.71;100.00;99310.38;4974924;28;20230;-74
2021/10/03 02:08:45;;;;;;;2.72;2.50;;;;;;;19.68;100.00;99305.59;4976341;28;20225;-75
2021/10/03 02:11:15;;;;;;;2.58;2.38;;;;;;;19.73;100.00;99315.53;4961321;28;20222;-75
2021/10/03 02:13:45;;;;;;;4.00;2.63;;;;;;;19.81;100.00;99307.06;4995680;28;20228;-77
2021/10/03 02:16:18;;;;;;;3.42;2.65;;;;;;;19.81;100.00;99311.75;4996608;28;20296;-74
2021/10/03 02:18:48;;;;;;;4.18;2.38;;;;;;;19.73;100.00;99301.75;4930859;28;20304;-75
2021/10/03 02:21:14;;;;;;;4.28;2.55;;;;;;;19.77;100.00;99308.91;4974611;28;20638;-74
2021/10/03 02:23:44;;;;;;;3.28;2.53;;;;;;;19.77;100.00;99314.44;4992557;28;20201;-74
2021/10/03 02:26:12;;;;;;;2.97;2.67;;;;;;;19.83;100.00;99310.22;4965531;28;20224;-74
2021/10/03 02:28:38;;;;;;;2.75;2.53;;;;;;;19.85;100.00;99307.94;4983191;28;20227;-74
2021/10/03 02:31:07;;;;;;;3.00;2.60;;;;;;;19.74;100.00;99314.34;4977542;28;20225;-74
2021/10/03 02:33:36;;;;;;;3.17;2.88;;;;;;;19.62;100.00;99299.97;4959436;28;20185;-74
2021/10/03 02:36:04;;;;;;;3.67;2.58;;;;;;;19.66;100.00;99306.34;4996284;28;20216;-74
2021/10/03 02:38:31;;;;;;;4.95;2.80;;;;;;;19.66;100.00;99305.16;4985578;28;20189;-73
2021/10/03 02:40:57;;;;;;;3.13;2.42;;;;;;;19.71;100.00;99291.09;4960852;28;20708;-73
2021/10/03 02:43:26;;;;;;;4.32;2.40;;;;;;;19.72;100.00;99289.13;5004453;28;20236;-74
2021/10/03 02:45:52;;;;;;;3.45;2.53;;;;;;;19.77;100.00;99270.34;4996596;28;20239;-75
2021/10/03 02:48:21;;;;;;;2.67;2.47;;;;;;;19.69;100.00;99282.41;5006121;28;20194;-74
2021/10/03 02:50:49;;;;;;;3.35;2.53;;;;;;;19.74;100.00;99281.28;4994623;28;20432;-74
2021/10/03 02:53:15;;;;;;;3.08;2.78;;;;;;;19.70;100.00;99275.69;4984466;28;20270;-73
2021/10/03 02:55:41;;;;;;;3.83;2.83;;;;;;;19.74;100.00;99276.59;4965031;28;20267;-73
2021/10/03 02:58:09;;;;;;;2.95;2.55;;;;;;;19.65;100.00;99282.69;4999338;28;20272;-73
2021/10/03 03:00:36;;;;;;;4.13;2.63;;;;;;;19.65;100.00;99283.50;4980483;28;20225;-74
2021/10/03 03:03:04;;;;;;;3.35;2.80;;;;;;;19.63;100.00;99282.25;4992426;28;20213;-74
2021/10/03 03:05:34;;;;;;;3.15;2.90;;;;;;;19.67;100.00;99281.97;4944559;28;20255;-74
2021/10/03 03:08:03;;;;;;;10.15;3.42;;;;;;;19.56;100.00;99282.09;4948668;28;20218;-75
2021/10/03 03:10:31;;;;;;;2.97;2.78;;;;;;;19.62;100.00;99280.69;4980361;28;20217;-74
2021/10/03 03:12:59;;;;;;;2.90;2.63;;;;;;;19.61;100.00;99281.81;4961681;28;20197;-74
2021/10/03 03:15:27;;;;;;;3.22;2.92;;;;;;;19.52;100.00;99284.78;4960459;28;20221;-73
2021/10/03 03:17:56;;;;;;;4.10;2.50;;;;;;;19.61;100.00;99292.84;4994448;28;20193;-74
2021/10/03 03:20:24;;;;;;;3.42;3.13;;;;;;;19.56;100.00;99284.84;4964447;28;20246;-75
2021/10/03 03:22:50;;;;;;;4.43;3.10;;;;;;;19.50;100.00;99287.13;4995704;28;20204;-74
2021/10/03 03:25:15;;;;;;;3.63;2.80;;;;;;;19.56;100.00;99285.69;4959490;28;20256;-75
2021/10/03 03:27:41;;;;;;;3.22;2.92;;;;;;;19.47;100.00;99278.81;4944396;28;20182;-75
2021/10/03 03:30:08;;;;;;;3.05;2.65;;;;;;;19.58;100.00;99277.03;4993173;28;20208;-75
2021/10/03 03:32:36;;;;;;;3.00;2.70;;;;;;;19.65;100.00;99278.00;4996119;28;20701;-75
2021/10/03 03:35:02;;;;;;;4.57;2.65;;;;;;;19.56;100.00;99280.16;4982067;28;20178;-75
2021/10/03 03:37:28;;;;;;;3.10;2.55;;;;;;;19.63;100.00;99285.00;4956572;28;20217;-75
2021/10/03 03:39:53;;;;;;;3.28;2.97;;;;;;;19.57;100.00;99286.47;4955178;28;20579;-73
2021/10/03 03:42:22;;;;;;;3.08;2.47;;;;;;;19.46;100.00;99288.22;4976350;28;20744;-73
2021/10/03 03:44:50;;;;;;;4.40;2.63;;;;;;;19.43;100.00;99291.69;4938185;29;20199;-74
2021/10/03 03:47:18;;;;;;;4.20;2.90;;;;;;;19.49;100.00;99279.22;4937405;29;20230;-75
2021/10/03 03:49:50;;;;;;;3.55;2.90;;;;;;;19.33;100.00;99286.78;4952714;28;20213;-74
2021/10/03 03:52:19;;;;;;;2.92;2.60;;;;;;;19.33;100.00;99282.06;4960601;28;20729;-74
2021/10/03 03:54:44;;;;;;;3.30;2.80;;;;;;;19.28;100.00;99289.81;4946301;29;20187;-76
2021/10/03 03:57:12;;;;;;;3.20;2.90;;;;;;;19.23;100.00;99287.34;4921017;29;20222;-73
2021/10/03 03:59:38;;;;;;;3.17;2.83;;;;;;;19.12;100.00;99285.50;4940409;28;20300;-73
2021/10/03 04:02:09;;;;;;;4.43;2.97;;;;;;;19.13;100.00;99287.91;4976130;28;20221;-75
2021/10/03 04:04:37;;;;;;;3.13;2.83;;;;;;;19.11;100.00;99293.00;4950044;29;20218;-74
2021/10/03 04:07:03;;;;;;;2.95;2.70;;;;;;;19.10;100.00;99291.41;4954796;29;20242;-73
2021/10/03 04:09:31;;;;;;;3.85;2.80;;;;;;;19.03;100.00;99291.25;4935134;28;20280;-74
2021/10/03 04:11:57;;;;;;;3.58;3.03;;;;;;;19.08;100.00;99295.66;4959449;28;20225;-74
2021/10/03 04:14:22;;;;;;;3.88;2.80;;;;;;;19.20;100.00;99304.59;4986497;28;20190;-74
2021/10/03 04:16:53;;;;;;;3.17;2.88;;;;;;;19.05;100.00;99302.69;4972286;28;20222;-73
2021/10/03 04:19:23;;;;;;;4.18;2.80;;;;;;;19.18;100.00;99293.16;4944843;28;20173;-73
2021/10/03 04:21:51;;;;;;;3.63;2.88;;;;;;;19.18;100.00;99303.38;4975860;28;20323;-74
2021/10/03 04:24:19;;;;;;;2.72;2.42;;;;;;;19.18;100.00;99306.13;4955810;28;20730;-74
2021/10/03 04:26:49;;;;;;;2.78;2.55;;;;;;;19.19;100.00;99307.69;4972255;28;20222;-73
2021/10/03 04:29:20;;;;;;;2.90;2.60;;;;;;;19.28;100.00;99303.56;4943436;28;20189;-73
2021/10/03 04:31:47;;;;;;;3.10;2.60;;;;;;;19.35;100.00;99309.22;4991016;28;20217;-74
2021/10/03 04:34:15;;;;;;;3.35;2.58;;;;;;;19.36;100.00;99313.59;4940688;28;20189;-74
2021/10/03 04:36:41;;;;;;;4.78;2.78;;;;;;;19.32;100.00;99312.69;4924157;28;20228;-75
2021/10/03 04:39:07;;;;;;;2.63;2.20;;;;;;;19.26;100.00;99307.84;4955907;28;20190;-73
2021/10/03 04:41:37;;;;;;;3.90;2.63;;;;;;;19.53;100.00;99302.94;4920652;29;20219;-73
2021/10/03 04:44:05;;;;;;;3.00;2.53;;;;;;;19.45;100.00;99301.19;4936347;29;20215;-74
2021/10/03 04:46:33;;;;;;;2.78;2.50;;;;;;;19.44;100.00;99304.31;4972695;28;20221;-73
2021/10/03 04:48:59;;;;;;;2.70;2.40;;;;;;;19.33;100.00;99298.56;4975232;28;20198;-74
2021/10/03 04:51:24;;;;;;;3.90;2.55;;;;;;;19.29;100.00;99302.44;4957404;28;20230;-74
2021/10/03 04:53:52;;;;;;;3.25;2.95;;;;;;;19.44;100.00;99298.81;4955728;28;20174;-73
2021/10/03 04:56:22;;;;;;;3.45;2.92;;;;;;;19.53;100.00;99302.94;4954660;28;20222;-73
2021/10/03 04:58:47;;;;;;;3.00;2.80;;;;;;;19.56;100.00;99304.16;4955466;28;20619;-72
2021/10/03 05:01:14;;;;;;;4.05;2.65;;;;;;;19.56;100.00;99307.72;4968924;28;20225;-74
2021/10/03 05:03:40;;;;;;;3.35;3.05;;;;;;;19.66;100.00;99299.66;4974697;28;20749;-73
2021/10/03 05:06:07;;;;;;;3.45;2.55;;;;;;;19.62;100.00;99299.97;4961425;28;20242;-73
2021/10/03 05:08:34;;;;;;;3.17;2.58;;;;;;;19.54;100.00;99304.53;4955833;28;20659;-75
2021/10/03 05:11:00;;;;;;;4.43;2.50;;;;;;;19.61;100.00;99298.34;4934322;28;20225;-74
2021/10/03 05:13:25;;;;;;;3.95;2.40;;;;;;;19.70;100.00;99289.47;4958231;28;20610;-74
2021/10/03 05:15:51;;;;;;;2.72;2.53;;;;;;;19.62;100.00;99292.47;4964623;28;20785;-74
2021/10/03 05:18:17;;;;;;;3.38;2.42;;;;;;;19.56;100.00;99293.13;4939515;28;20186;-75
2021/10/03 05:20:42;;;;;;;3.35;2.60;;;;;;;19.61;100.00;99292.84;4946282;28;20256;-73
2021/10/03 05:23:08;;;;;;;2.92;2.63;;;;;;;19.61;100.00;99292.84;4990663;28;20709;-73
2021/10/03 05:25:36;;;;;;;2.92;2.70;;;;;;;19.82;100.00;99300.38;4933107;29;20231;-73
2021/10/03 05:28:05;;;;;;;5.53;2.78;;;;;;;19.73;100.00;99296.25;4920316;29;20275;-73
2021/10/03 05:30:30;;;;;;;3.42;2.55;;;;;;;19.76;100.00;99295.50;5159216;23;20296;-74
2021/10/03 05:32:58;;;;;;;2.70;2.50;;;;;;;19.66;100.00;99289.78;4938311;29;20672;-74
2021/10/03 05:35:24;;;;;;;2.35;2.15;;;;;;;19.72;100.00;99286.38;4941428;28;20217;-72
2021/10/03 05:37:49;;;;;;;2.53;2.33;;;;;;;19.71;100.00;99291.09;4959269;28;20196;-72
2021/10/03 05:40:20;;;;;;;2.58;2.35;;;;;;;19.57;100.00;99286.47;4981828;28;20557;-72
2021/10/03 05:42:47;;;;;;;2.67;2.40;;;;;;;19.73;100.00;99288.75;4906056;29;20183;-73
2021/10/03 05:45:15;;;;;;;3.35;2.60;;;;;;;19.69;100.00;99287.91;4922836;28;20183;-73
2021/10/03 05:47:41;;;;;;;3.47;2.70;;;;;;;19.58;100.00;99293.56;4959971;28;20651;-73
2021/10/03 05:50:10;;;;;;;3.03;2.75;;;;;;;19.66;100.00;99293.34;4927499;28;20202;-73
2021/10/03 05:52:36;;;;;;;2.83;2.63;;;;;;;19.61;100.00;99299.13;4926303;29;20691;-73
2021/10/03 05:55:04;;;;;;;3.42;2.85;;;;;;;19.51;100.00;99301.72;4940866;29;20182;-74
2021/10/03 05:57:30;;;;;;;3.13;2.53;;;;;;;19.60;100.00;99288.50;4940709;28;20214;-73
2021/10/03 06:00:00;;;;;;;3.55;2.55;;;;;;;19.76;100.00;99292.75;4958807;28;20209;-75
2021/10/03 06:02:28;;;;;;;3.08;2.78;;;;;;;19.66;100.00;99290.59;4926665;29;20711;-72
2021/10/03 06:04:56;;;;;;;2.60;2.40;;;;;;;19.52;100.00;99300.53;4923664;29;20218;-73
2021/10/03 06:07:22;;;;;;;2.88;2.63;;;;;;;19.58;100.00;99297.13;4899534;29;20227;-73
2021/10/03 06:09:52;;;;;;;4.80;2.70;;;;;;;19.70;100.00;99292.25;4904542;29;20208;-73
2021/10/03 06:12:18;;;;;;;3.10;2.47;;;;;;;19.67;100.00;99293.00;4898313;29;20314;-74
2021/10/03 06:14:43;;;;;;;3.60;2.67;;;;;;;19.70;100.00;99296.97;4920352;29;20287;-73
2021/10/03 06:17:09;;;;;;;3.88;2.80;;;;;;;19.78;100.00;99305.00;4949902;28;20214;-74
2021/10/03 06:19:37;;;;;;;3.40;3.10;;;;;;;19.75;100.00;99305.72;4943193;28;20198;-73
2021/10/03 06:22:03;;;;;;;3.15;2.53;;;;;;;19.66;100.00;99310.66;4949939;29;20593;-75
2021/10/03 06:24:31;;;;;;;2.88;2.63;;;;;;;19.66;100.00;99312.63;4940974;29;20215;-74
2021/10/03 06:26:59;;;;;;;2.97;2.70;;;;;;;19.74;100.00;99306.09;4931863;28;20225;-75
2021/10/03 06:29:25;;;;;;;3.22;2.38;;;;;;;19.71;100.00;99313.13;4926896;28;20209;-73
2021/10/03 06:31:53;;;;;;;3.45;2.70;;;;;;;19.81;100.00;99314.50;4934445;29;20705;-74
2021/10/03 06:34:21;;;;;;;3.78;2.65;;;;;;;19.85;100.00;99315.38;4923424;29;20278;-73
2021/10/03 06:36:47;;;;;;;3.28;2.60;;;;;;;19.79;100.00;99311.31;4928877;28;20233;-73
2021/10/03 06:39:15;;;;;;;2.97;2.67;;;;;;;19.82;100.00;99314.16;4974893;28;20186;-73
2021/10/03 06:41:41;;;;;;;2.80;2.60;;;;;;;19.84;100.00;99311.84;4953274;29;20585;-72
2021/10/03 06:44:08;;;;;;;5.10;2.67;;;;;;;19.86;100.00;99311.47;4907346;29;20238;-72
2021/10/03 06:46:36;;;;;;;3.08;2.63;;;;;;;19.76;100.00;99318.38;4926083;28;20218;-74
2021/10/03 06:49:04;;;;;;;2.85;2.65;;;;;;;20.00;100.00;99307.03;4942609;28;20187;-73
2021/10/03 06:51:30;;;;;;;3.28;2.75;;;;;;;19.94;100.00;99313.19;4939332;28;20233;-73
2021/10/03 06:53:58;;;;;;;3.53;3.22;;;;;;;19.97;100.00;99318.78;4938511;29;20183;-74
2021/10/03 06:56:26;;;;;;;3.70;2.90;;;;;;;19.96;100.00;99330.97;4954847;28;20219;-74
2021/10/03 06:58:57;;;;;;;3.00;2.70;;;;;;;19.98;100.00;99331.41;4941820;28;20903;-73
2021/10/03 07:01:22;;;;;;;4.10;2.83;;;;;;;19.86;100.00;99333.53;4940623;28;20231;-73
2021/10/03 07:03:48;;;;;;;4.05;2.85;;;;;;;19.78;100.00;99337.28;4974007;28;20279;-72
2021/10/03 07:06:16;;;;;;;5.13;2.90;;;;;;;19.71;100.00;99332.44;4956653;28;20222;-73
2021/10/03 07:08:42;;;;;;;3.90;3.05;;;;;;;19.83;100.00;99340.56;4940477;29;20198;-73
2021/10/03 07:11:08;;;;;;;3.10;2.80;;;;;;;19.80;100.00;99341.28;4937986;29;20237;-74
2021/10/03 07:13:34;;;;;;;3.83;3.05;;;;;;;19.75;100.00;99344.31;4941401;28;20186;-73
2021/10/03 07:16:02;;;;;;;4.68;2.63;;;;;;;19.91;100.00;99347.81;4956958;28;20268;-72
2021/10/03 07:18:27;;;;;;;3.30;2.78;;;;;;;19.86;100.00;99344.56;4943497;29;20282;-73
2021/10/03 07:20:53;;;;;;;3.78;2.80;;;;;;;19.89;100.00;99344.63;4938902;28;20237;-72
2021/10/03 07:23:21;;;;;;;3.28;2.95;;;;;;;19.85;100.00;99343.78;4954622;29;20203;-73
2021/10/03 07:25:47;;;;;;;3.50;3.20;;;;;;;19.85;100.00;99342.94;4925113;29;20238;-74
2021/10/03 07:28:15;;;;;;;3.17;2.83;;;;;;;19.87;100.00;99354.41;4965699;28;20194;-73
2021/10/03 07:30:45;;;;;;;2.65;2.45;;;;;;;19.83;100.00;99346.06;4929191;28;20680;-74
2021/10/03 07:33:14;;;;;;;2.95;2.65;;;;;;;19.84;100.00;99355.16;4932539;29;20179;-74
2021/10/03 07:35:42;;;;;;;2.63;2.42;;;;;;;19.97;100.00;99351.09;4939460;29;20232;-73
2021/10/03 07:38:09;;;;;;;3.05;2.72;;;;;;;20.00;100.00;99353.91;4918325;28;20190;-74
2021/10/03 07:40:35;;;;;;;3.38;3.03;;;;;;;19.98;100.00;99359.00;4957126;28;20226;-74
2021/10/03 07:43:01;;;;;;;3.70;2.70;;;;;;;19.95;100.00;99362.47;4933940;29;20674;-74
2021/10/03 07:45:29;;;;;;;2.60;2.40;;;;;;;19.96;100.00;99358.53;4921483;28;20274;-74
2021/10/03 07:48:01;;;;;;;3.35;2.58;;;;;;;19.90;100.00;99362.75;4944235;28;20574;-73
2021/10/03 07:50:27;;;;;;;3.15;2.83;;;;;;;19.90;100.00;99351.72;4940800;28;20237;-74
2021/10/03 07:52:52;;;;;;;3.70;2.70;;;;;;;19.97;100.00;99348.31;4936873;29;20210;-75
2021/10/03 07:55:20;;;;;;;3.33;2.47;;;;;;;20.06;100.00;99350.47;4921060;28;20191;-73
2021/10/03 07:57:50;;;;;;;2.75;2.55;;;;;;;20.05;100.00;99352.78;4924826;28;20182;-73
2021/10/03 08:00:15;;;;;;;2.97;2.50;;;;;;;20.15;100.00;99347.50;4956528;28;20217;-73
2021/10/03 08:02:41;;;;;;;3.28;2.67;;;;;;;20.14;100.00;99348.63;4972098;28;20179;-73
2021/10/03 08:05:07;;;;;;;2.78;2.58;;;;;;;20.14;100.00;99351.41;4936926;28;20569;-73
2021/10/03 08:07:35;;;;;;;2.70;2.50;;;;;;;20.20;100.00;99349.94;4952600;28;20206;-74
2021/10/03 08:10:00;;;;;;;4.75;2.80;;;;;;;20.14;100.00;99343.13;4939900;28;20707;-72
2021/10/03 08:12:28;;;;;;;3.30;3.00;;;;;;;20.24;100.00;99348.06;4924243;28;20277;-72
2021/10/03 08:14:56;;;;;;;3.10;2.67;;;;;;;20.35;100.00;99349.03;4922685;29;20194;-74
2021/10/03 08:17:24;;;;;;;4.15;2.75;;;;;;;20.55;100.00;99352.16;4936319;29;20223;-74
2021/10/03 08:19:50;;;;;;;3.00;2.20;;;;;;;20.54;100.00;99347.78;4939244;28;20214;-74
2021/10/03 08:22:20;;;;;;;3.03;2.65;;;;;;;20.66;100.00;99331.06;4956194;28;20225;-72
2021/10/03 08:24:51;;;;;;;3.00;2.70;;;;;;;20.64;100.00;99354.66;4925165;29;20289;-73
2021/10/03 08:27:16;;;;;;;2.90;2.63;;;;;;;20.60;100.00;99354.59;4968298;28;20223;-73
2021/10/03 08:29:44;;;;;;;3.15;2.50;;;;;;;20.43;100.00;99354.28;4936776;28;20190;-73
2021/10/03 08:32:10;;;;;;;2.55;2.35;;;;;;;20.49;100.00;99361.09;4973671;28;20226;-73
2021/10/03 08:34:36;;;;;;;4.40;2.38;;;;;;;20.46;100.00;99364.59;4931229;28;20196;-73
2021/10/03 08:37:06;;;;;;;2.70;2.35;;;;;;;20.57;97.08;99360.06;4959235;28;20708;-73
2021/10/03 08:39:36;;;;;;;3.40;2.45;;;;;;;20.52;99.40;99358.41;4947257;29;20222;-72
2021/10/03 08:42:05;;;;;;;3.22;2.22;;;;;;;20.53;99.24;99360.00;4962159;28;20222;-73
2021/10/03 08:44:33;;;;;;;3.03;2.30;;;;;;;20.51;99.65;99354.06;4941123;28;20217;-73
2021/10/03 08:46:58;;;;;;;3.33;3.00;;;;;;;20.46;98.62;99365.41;4939110;28;20229;-72
2021/10/03 08:49:26;;;;;;;2.65;2.45;;;;;;;20.37;100.00;99366.81;4930418;29;20183;-73
2021/10/03 08:51:52;;;;;;;3.17;2.60;;;;;;;20.45;100.00;99372.06;4953163;28;20238;-74
2021/10/03 08:54:22;;;;;;;2.83;2.58;;;;;;;20.58;96.50;99367.16;4928923;28;20175;-72
2021/10/03 08:56:48;;;;;;;2.50;2.30;;;;;;;20.52;96.86;99368.66;4923659;28;20230;-73
2021/10/03 08:59:16;;;;;;;2.30;2.10;;;;;;;20.52;95.72;99368.66;4915192;29;20311;-74
2021/10/03 09:01:52;;;;;;;2.53;2.33;;;;;;;20.56;95.71;99381.31;4920261;29;20235;-74
2021/10/03 09:04:31;;;;;;;2.80;2.13;;;;;;;20.42;96.34;99382.25;4943620;28;20557;-73
2021/10/03 09:07:04;;;;;;;3.15;2.30;;;;;;;20.50;96.13;99369.00;4923298;28;20222;-75
2021/10/03 09:09:48;;;;;;;2.40;2.20;;;;;;;20.53;94.65;99375.75;4913026;29;20207;-74
2021/10/03 09:12:32;;;;;;;2.30;2.10;;;;;;;20.60;96.08;99360.13;4933625;29;20276;-74
2021/10/03 09:15:08;;;;;;;2.72;2.53;;;;;;;20.73;92.28;99372.59;4939486;28;20265;-72
2021/10/03 09:17:34;;;;;;;2.75;2.10;;;;;;;20.80;90.95;99360.88;4940093;28;20264;-73
2021/10/03 09:20:13;;;;;;;2.58;2.10;;;;;;;20.77;89.12;99370.69;4945204;29;20199;-74
2021/10/03 09:23:00;;;;;;;2.70;2.20;;;;;;;20.81;90.25;99368.78;4920781;29;20222;-73
2021/10/03 09:25:42;;;;;;;2.47;2.25;;;;;;;20.71;91.96;99376.88;4936121;28;20254;-72
2021/10/03 09:28:12;;;;;;;2.97;2.20;;;;;;;20.78;86.95;99366.75;4906736;29;20180;-72
2021/10/03 09:30:54;;;;;;;2.63;2.40;;;;;;;20.76;91.18;99368.28;4928729;28;20233;-71
2021/10/03 09:33:19;;;;;;;2.20;2.00;;;;;;;20.82;89.14;99367.59;4939436;28;20277;-72
2021/10/03 09:35:59;;;;;;;4.18;2.20;;;;;;;20.98;86.06;99366.28;4905605;29;20227;-71
2021/10/03 09:38:27;;;;;;;2.20;2.00;;;;;;;20.97;86.64;99370.22;4907655;29;20245;-72
2021/10/03 09:41:04;;;;;;;2.20;2.05;;;;;;;21.04;86.78;99380.56;4920073;29;20305;-72
2021/10/03 09:43:43;;;;;;;3.92;2.10;;;;;;;20.96;88.92;99378.88;4911762;29;20700;-72
2021/10/03 09:46:09;;;;;;;2.80;2.15;;;;;;;20.89;85.34;99384.28;4934324;29;20214;-70
2021/10/03 09:48:48;;;;;;;2.45;2.13;;;;;;;20.85;88.53;99389.75;4931318;29;20175;-73
2021/10/03 09:51:15;;;;;;;2.95;2.00;;;;;;;20.73;85.98;99400.19;4922178;29;20309;-71
2021/10/03 09:53:44;;;;;;;2.72;2.05;;;;;;;20.80;91.05;99394.78;4918389;29;20267;-72
2021/10/03 09:56:09;;;;;;;2.10;1.90;;;;;;;20.79;88.21;99398.72;4907135;29;20224;-73
2021/10/03 09:58:41;;;;;;;2.78;1.95;;;;;;;20.78;91.79;99399.09;4917355;29;20212;-71
2021/10/03 10:01:09;;;;;;;2.40;2.20;;;;;;;20.70;87.52;99398.16;4911840;28;20222;-70
2021/10/03 10:03:37;;;;;;;2.63;2.22;;;;;;;20.72;96.69;99384.78;4939891;28;20300;-70
2021/10/03 10:06:03;;;;;;;2.58;2.20;;;;;;;20.73;92.36;99386.41;4958768;28;20739;-71
2021/10/03 10:08:33;;;;;;;2.10;1.95;;;;;;;20.86;90.58;99393.31;4935794;29;20210;-72
2021/10/03 10:11:12;;;;;;;2.75;2.10;;;;;;;20.75;92.01;99389.59;4931143;28;20233;-71
2021/10/03 10:13:38;;;;;;;2.47;2.28;;;;;;;20.83;89.88;99386.56;4939587;28;20229;-72
2021/10/03 10:16:25;;;;;;;2.22;2.00;;;;;;;20.72;92.07;99387.56;4927629;29;20715;-71
2021/10/03 10:18:51;;;;;;;2.25;2.05;;;;;;;20.88;88.51;99374.41;4937040;29;20187;-71
2021/10/03 10:21:22;;;;;;;2.67;2.10;;;;;;;20.99;87.22;99364.34;4939467;28;20289;-71
2021/10/03 10:23:50;;;;;;;2.67;2.13;;;;;;;21.00;92.47;99363.16;4925116;28;20214;-70
2021/10/03 10:26:40;;;;;;;2.40;1.98;;;;;;;21.17;89.85;99370.91;4926798;29;20276;-70
2021/10/03 10:31:34;;;;;;;3.33;2.00;;;;;;;21.27;87.42;99363.56;4980671;28;20226;-72
2021/10/03 10:34:04;;;;;;;3.20;2.00;;;;;;;21.40;82.82;99373.25;4971635;28;20201;-72
2021/10/03 10:36:33;;;;;;;2.03;1.90;;;;;;;21.27;84.46;99369.09;4970162;28;20260;-72
2021/10/03 10:39:07;;;;;;;2.00;1.90;;;;;;;21.39;82.65;99374.41;4940803;28;20190;-71
2021/10/03 10:41:40;;;;;;;2.33;2.08;;;;;;;21.24;85.49;99386.44;4960466;28;20230;-73
2021/10/03 10:44:24;;;;;;;2.20;2.00;;;;;;;21.39;84.29;99371.63;4924978;29;20211;-73
2021/10/03 10:46:53;;;;;;;2.22;1.73;;;;;;;21.44;81.85;99384.34;4957372;28;20222;-72
2021/10/03 10:50:04;;;;;;;2.08;1.88;;;;;;;21.51;81.47;99385.25;4940678;28;20570;-71
2021/10/03 10:52:30;;;;;;;2.40;1.77;;;;;;;21.78;82.08;99384.03;4940196;28;20226;-74
2021/10/03 10:55:01;;;;;;;1.80;1.70;;;;;;;21.86;80.47;99385.69;4941883;28;20225;-69
2021/10/03 10:57:28;;;;;;;4.75;2.00;;;;;;;21.72;80.85;99385.50;4967931;28;20701;-70
2021/10/03 11:00:23;;;;;;;3.33;1.85;;;;;;;22.00;78.68;99385.88;4938583;29;20210;-70
2021/10/03 11:03:14;;;;;;;3.10;1.88;;;;;;;21.95;85.42;99384.22;4939222;29;20222;-72
2021/10/03 11:05:44;;;;;;;3.63;2.00;;;;;;;21.90;83.20;99408.66;4960977;28;20254;-72
2021/10/03 11:08:19;;;;;;;2.25;2.03;;;;;;;21.84;85.03;99410.97;4925073;28;20559;-73
2021/10/03 11:10:59;;;;;;;2.85;2.03;;;;;;;21.33;89.99;99406.28;4926825;28;20260;-72
2021/10/03 11:13:45;;;;;;;2.88;2.00;;;;;;;21.04;94.45;99408.19;4956409;28;20209;-71
2021/10/03 11:16:27;;;;;;;2.30;2.10;;;;;;;20.55;100.00;99406.56;4958435;28;20214;-71
2021/10/03 11:19:10;;;;;;;3.65;2.15;;;;;;;20.28;100.00;99401.31;4942131;28;20182;-71
2021/10/03 11:21:37;;;;;;;2.85;2.30;;;;;;;20.40;100.00;99392.84;4955362;28;20746;-72
2021/10/03 11:24:25;;;;;;;2.47;2.28;;;;;;;20.32;100.00;99391.94;4917791;28;20198;-72
2021/10/03 11:27:03;;;;;;;2.50;2.30;;;;;;;20.26;100.00;99384.34;4940772;28;20600;-74
2021/10/03 11:29:40;;;;;;;2.72;2.50;;;;;;;20.48;100.00;99382.38;4933398;28;20545;-73
2021/10/03 11:32:08;;;;;;;4.45;2.40;;;;;;;20.42;100.00;99373.97;4925357;29;20719;-72
2021/10/03 11:34:39;;;;;;;2.40;2.20;;;;;;;20.45;100.00;99371.28;4942447;28;20237;-71
2021/10/03 11:37:19;;;;;;;3.38;2.35;;;;;;;20.66;100.00;99366.97;4939227;28;20245;-72